Time;durP1;ratioP1;P1;durP2;ratioP2;P2;SDS_P1;SDS_P2;PMS_P1;PMS_P2;Temp;Humidity;BMP_temperature;BMP_pressure;BME280_temperature;BME280_humidity;BME280_pressure;Samples;Min_cycle;Max_cycle;Signal;HPM_P1;HPM_P2
2023/12/10 00:00:11;;;;;;;0.40;0.40;;;8.40;99.90;;;;;;5123654;27;20380;-77
2023/12/10 00:02:37;;;;;;;;;;;8.30;99.90;;;;;;5123240;27;20081;-78
2023/12/10 00:05:03;;;;;;;0.60;0.60;;;8.40;99.90;;;;;;5122799;27;20045;-80
2023/12/10 00:07:28;;;;;;;0.40;0.40;;;8.40;99.90;;;;;;5122175;27;20535;-80
2023/12/10 00:09:54;;;;;;;0.40;0.40;;;8.30;99.90;;;;;;5124039;27;20118;-80
2023/12/10 00:12:20;;;;;;;0.40;0.40;;;8.40;99.90;;;;;;5121659;27;20139;-79
2023/12/10 00:14:49;;;;;;;0.55;0.55;;;8.40;99.90;;;;;;5121399;27;20078;-81
2023/12/10 00:17:15;;;;;;;0.40;0.40;;;8.30;99.90;;;;;;5123928;27;20080;-81
2023/12/10 00:19:41;;;;;;;0.32;0.32;;;8.50;99.90;;;;;;5121252;27;20039;-80
2023/12/10 00:22:06;;;;;;;0.75;0.75;;;8.40;99.90;;;;;;5108094;27;20099;-80
2023/12/10 00:24:32;;;;;;;0.50;0.50;;;8.40;99.90;;;;;;5122448;27;20480;-79
2023/12/10 00:26:58;;;;;;;0.60;0.60;;;8.60;99.90;;;;;;5104748;27;20035;-81
2023/12/10 00:29:23;;;;;;;0.40;0.40;;;8.40;99.90;;;;;;5123133;27;20049;-77
2023/12/10 00:31:49;;;;;;;0.52;0.52;;;8.50;99.90;;;;;;5106398;27;20043;-77
2023/12/10 00:34:15;;;;;;;0.45;0.45;;;8.60;99.90;;;;;;5124048;27;20046;-78
2023/12/10 00:36:41;;;;;;;0.68;0.68;;;8.70;99.90;;;;;;5106144;27;20037;-78
2023/12/10 00:39:06;;;;;;;0.93;0.93;;;8.50;99.90;;;;;;5105097;27;20070;-80
2023/12/10 00:41:32;;;;;;;0.40;0.40;;;8.50;99.90;;;;;;5125989;27;20475;-81
2023/12/10 00:43:58;;;;;;;0.60;0.60;;;8.50;99.90;;;;;;5108963;27;20129;-77
2023/12/10 00:46:24;;;;;;;0.52;0.52;;;8.50;99.90;;;;;;5129488;27;20038;-77
2023/12/10 00:48:49;;;;;;;0.60;0.60;;;8.70;99.90;;;;;;5092418;27;20071;-78
2023/12/10 00:51:20;;;;;;;2.17;0.73;;;8.60;99.90;;;;;;5128420;27;20070;-79
2023/12/10 00:53:46;;;;;;;0.50;0.50;;;8.60;99.90;;;;;;5127694;27;20049;-77
2023/12/10 00:56:12;;;;;;;0.47;0.47;;;8.60;99.90;;;;;;5101477;27;20132;-80
2023/12/10 00:58:37;;;;;;;0.45;0.45;;;8.60;99.90;;;;;;5126274;27;20376;-77
2023/12/10 01:01:03;;;;;;;0.40;0.40;;;8.60;99.90;;;;;;5129463;27;20506;-78
2023/12/10 01:03:29;;;;;;;0.50;0.50;;;8.50;99.90;;;;;;5122531;27;20039;-82
2023/12/10 01:05:55;;;;;;;0.40;0.40;;;8.50;99.90;;;;;;5126967;27;20043;-79
2023/12/10 01:08:20;;;;;;;0.50;0.50;;;8.50;99.90;;;;;;5111407;27;20072;-77
2023/12/10 01:10:46;;;;;;;0.52;0.52;;;8.60;99.90;;;;;;5131769;27;20403;-79
2023/12/10 01:13:13;;;;;;;0.63;0.63;;;8.60;99.90;;;;;;5108305;27;20047;-78
2023/12/10 01:15:39;;;;;;;0.40;0.40;;;8.40;99.90;;;;;;5132120;27;20172;-78
2023/12/10 01:18:05;;;;;;;0.50;0.50;;;8.30;99.90;;;;;;5128470;27;20515;-79
2023/12/10 01:20:32;;;;;;;0.32;0.32;;;8.20;99.90;;;;;;5093820;27;20035;-78
2023/12/10 01:22:59;;;;;;;2.00;1.90;;;8.10;99.90;;;;;;5128101;28;20392;-79
2023/12/10 01:25:25;;;;;;;0.30;0.30;;;8.00;99.90;;;;;;5128224;27;20046;-79
2023/12/10 01:27:55;;;;;;;0.30;0.30;;;8.00;99.90;;;;;;5101915;27;20043;-80
2023/12/10 01:30:24;;;;;;;0.50;0.50;;;7.90;99.90;;;;;;5127654;28;20067;-77
2023/12/10 01:32:57;;;;;;;0.40;0.40;;;8.00;99.90;;;;;;5128990;27;20051;-79
2023/12/10 01:35:23;;;;;;;3.13;1.55;;;8.00;99.90;;;;;;5109868;28;20031;-78
2023/12/10 01:37:49;;;;;;;0.50;0.50;;;7.50;99.90;;;;;;5126434;27;20035;-79
2023/12/10 01:40:15;;;;;;;2.47;2.38;;;8.00;99.90;;;;;;5114077;28;20042;-80
2023/12/10 01:42:44;;;;;;;0.60;0.60;;;7.80;99.90;;;;;;5110251;28;20471;-78
2023/12/10 01:45:10;;;;;;;0.55;0.55;;;8.00;99.90;;;;;;5126908;27;20191;-79
2023/12/10 01:47:38;;;;;;;;;;;7.80;99.90;;;;;;5110412;28;20097;-78
2023/12/10 01:50:05;;;;;;;0.60;0.60;;;7.90;99.90;;;;;;5135473;27;20064;-79
2023/12/10 01:52:35;;;;;;;0.50;0.50;;;7.80;99.90;;;;;;5129138;27;20043;-79
2023/12/10 01:55:03;;;;;;;1.45;1.45;;;7.60;99.90;;;;;;5126872;27;20058;-76
2023/12/10 01:57:32;;;;;;;0.50;0.50;;;7.70;99.90;;;;;;5126813;27;20479;-76
2023/12/10 01:59:58;;;;;;;0.65;0.65;;;7.70;99.90;;;;;;5127757;27;20084;-80
2023/12/10 02:02:25;;;;;;;0.82;0.82;;;7.70;99.90;;;;;;5126358;27;20483;-78
2023/12/10 02:04:54;;;;;;;0.40;0.40;;;7.70;99.90;;;;;;5127379;27;20039;-78
2023/12/10 02:07:23;;;;;;;0.40;0.40;;;7.70;99.90;;;;;;5126752;27;20114;-78
2023/12/10 02:09:50;;;;;;;0.52;0.52;;;7.80;99.90;;;;;;5112700;28;20074;-77
2023/12/10 02:12:18;;;;;;;0.40;0.40;;;7.60;99.90;;;;;;5128252;27;20051;-79
2023/12/10 02:14:44;;;;;;;0.60;0.60;;;7.70;99.90;;;;;;5113715;27;20039;-78
2023/12/10 02:17:09;;;;;;;;;;;7.60;99.90;;;;;;5115736;27;20074;-77
2023/12/10 02:19:35;;;;;;;0.57;0.57;;;7.70;99.90;;;;;;5135941;27;20379;-81
2023/12/10 02:22:04;;;;;;;4.40;1.67;;;7.50;99.90;;;;;;5130909;27;20039;-78
2023/12/10 02:24:41;;;;;;;0.40;0.40;;;7.60;99.90;;;;;;5131881;27;20055;-80
2023/12/10 02:27:08;;;;;;;0.40;0.40;;;7.70;99.90;;;;;;5129575;27;20051;-76
2023/12/10 02:29:33;;;;;;;;;;;7.60;99.90;;;;;;5114133;27;20043;-80
2023/12/10 02:31:59;;;;;;;0.40;0.40;;;7.70;99.90;;;;;;5104817;27;19919;-79
2023/12/10 02:34:25;;;;;;;0.50;0.50;;;7.60;99.90;;;;;;5130851;27;20502;-78
2023/12/10 02:36:51;;;;;;;0.50;0.50;;;7.60;99.90;;;;;;5130831;27;20043;-82
2023/12/10 02:39:16;;;;;;;8.07;4.95;;;7.60;99.90;;;;;;5130317;27;20376;-76
2023/12/10 02:41:42;;;;;;;1.05;1.05;;;7.40;99.90;;;;;;5130215;27;20442;-78
2023/12/10 02:44:08;;;;;;;0.40;0.40;;;7.50;99.90;;;;;;5113967;27;20429;-79
2023/12/10 02:46:34;;;;;;;0.40;0.40;;;7.50;99.90;;;;;;5133779;27;20146;-80
2023/12/10 02:48:59;;;;;;;0.50;0.50;;;7.70;99.90;;;;;;5092165;27;20072;-77
2023/12/10 02:51:25;;;;;;;0.30;0.30;;;7.60;99.90;;;;;;5129458;27;20042;-81
2023/12/10 02:53:51;;;;;;;0.47;0.47;;;7.70;99.90;;;;;;5130534;27;20058;-76
2023/12/10 02:56:16;;;;;;;0.47;0.47;;;7.80;99.90;;;;;;5130494;27;20038;-77
2023/12/10 02:58:42;;;;;;;0.40;0.40;;;7.70;99.90;;;;;;5132205;27;20395;-77
2023/12/10 03:01:08;;;;;;;0.60;0.60;;;7.60;99.90;;;;;;5131506;27;20118;-78
2023/12/10 03:03:34;;;;;;;0.50;0.50;;;7.60;99.90;;;;;;5129592;27;20521;-79
2023/12/10 03:05:59;;;;;;;0.77;0.77;;;7.50;99.90;;;;;;5114175;27;20149;-78
2023/12/10 03:08:25;;;;;;;0.50;0.50;;;7.60;99.90;;;;;;5116993;27;20473;-76
2023/12/10 03:10:51;;;;;;;0.40;0.40;;;7.30;99.90;;;;;;5097695;27;20098;-78
2023/12/10 03:13:17;;;;;;;0.57;0.57;;;7.40;99.90;;;;;;5120324;27;20103;-77
2023/12/10 03:15:42;;;;;;;1.25;0.70;;;7.50;99.90;;;;;;5112655;27;20074;-78
2023/12/10 03:18:08;;;;;;;0.50;0.50;;;7.40;99.90;;;;;;5129351;27;20400;-79
2023/12/10 03:20:34;;;;;;;0.50;0.50;;;7.50;99.90;;;;;;5116770;27;20452;-75
2023/12/10 03:23:02;;;;;;;0.40;0.40;;;7.50;99.90;;;;;;5114746;27;20039;-79
2023/12/10 03:25:28;;;;;;;0.40;0.40;;;7.50;99.90;;;;;;5113009;27;20039;-77
2023/12/10 03:27:54;;;;;;;0.47;0.47;;;7.50;99.90;;;;;;5094245;27;20039;-75
2023/12/10 03:30:19;;;;;;;0.50;0.50;;;7.50;99.90;;;;;;5079072;27;20122;-76
2023/12/10 03:32:45;;;;;;;0.50;0.50;;;7.30;99.90;;;;;;5112719;27;20047;-78
2023/12/10 03:35:11;;;;;;;2.30;2.20;;;7.40;99.90;;;;;;5111682;27;20058;-79
2023/12/10 03:37:36;;;;;;;0.40;0.40;;;7.50;99.90;;;;;;5114280;27;20050;-76
2023/12/10 03:40:03;;;;;;;0.60;0.60;;;7.50;99.90;;;;;;5128087;27;20151;-76
2023/12/10 03:42:29;;;;;;;0.55;0.45;;;8.00;99.90;;;;;;5110427;27;20031;-77
2023/12/10 03:44:56;;;;;;;0.50;0.50;;;7.40;99.90;;;;;;5113995;27;20041;-77
2023/12/10 03:47:22;;;;;;;0.40;0.40;;;7.30;99.90;;;;;;5115953;27;20457;-80
2023/12/10 03:49:47;;;;;;;0.50;0.50;;;7.50;99.90;;;;;;5134081;27;20031;-80
2023/12/10 03:52:13;;;;;;;0.55;0.55;;;7.40;99.90;;;;;;5113182;27;20100;-78
2023/12/10 03:54:39;;;;;;;;;;;7.50;99.90;;;;;;5131281;27;20039;-77
2023/12/10 03:57:05;;;;;;;0.50;0.50;;;7.60;99.90;;;;;;5112298;27;19926;-75
2023/12/10 03:59:31;;;;;;;0.60;0.60;;;7.40;99.90;;;;;;5128852;27;20564;-80
2023/12/10 04:01:56;;;;;;;0.40;0.40;;;7.40;99.90;;;;;;5130408;27;20218;-78
2023/12/10 04:04:22;;;;;;;0.40;0.40;;;7.40;99.90;;;;;;5111536;27;20479;-81
2023/12/10 04:06:48;;;;;;;0.50;0.50;;;7.50;99.90;;;;;;5112798;27;20053;-80
2023/12/10 04:09:14;;;;;;;0.30;0.30;;;7.30;99.90;;;;;;5119668;27;20053;-82
2023/12/10 04:11:39;;;;;;;10.73;1.13;;;7.40;99.90;;;;;;5131769;27;20527;-82
2023/12/10 04:14:09;;;;;;;0.50;0.50;;;7.30;99.90;;;;;;5116337;27;20039;-81
2023/12/10 04:16:36;;;;;;;0.50;0.50;;;7.60;99.90;;;;;;5122969;27;20031;-82
2023/12/10 04:19:02;;;;;;;0.40;0.40;;;7.50;99.90;;;;;;5137341;27;20035;-87
2023/12/10 04:21:28;;;;;;;0.40;0.40;;;7.60;99.90;;;;;;5120359;27;20074;-80
2023/12/10 04:23:54;;;;;;;0.50;0.50;;;7.40;99.90;;;;;;5119276;27;20503;-83
2023/12/10 04:26:20;;;;;;;0.47;0.47;;;7.50;99.90;;;;;;5137121;27;20047;-83
2023/12/10 04:28:46;;;;;;;0.40;0.40;;;7.60;99.90;;;;;;5122474;27;20035;-84
2023/12/10 04:31:12;;;;;;;0.50;0.50;;;7.50;99.90;;;;;;5101190;27;20039;-81
2023/12/10 04:33:37;;;;;;;0.50;0.50;;;7.50;99.90;;;;;;5146013;27;20755;-82
2023/12/10 04:36:04;;;;;;;0.40;0.40;;;7.70;99.90;;;;;;5122922;27;20038;-83
2023/12/10 04:38:29;;;;;;;;;;;7.50;99.90;;;;;;5101245;27;20045;-83
2023/12/10 04:40:55;;;;;;;0.47;0.47;;;7.70;99.90;;;;;;5136848;27;20006;-82
2023/12/10 04:43:21;;;;;;;0.40;0.40;;;7.70;99.90;;;;;;5135103;27;20519;-84
2023/12/10 04:45:47;;;;;;;0.35;0.35;;;7.60;99.90;;;;;;5134680;27;20042;-83
2023/12/10 04:48:13;;;;;;;0.60;0.60;;;7.70;99.90;;;;;;5117749;27;20035;-81
2023/12/10 04:50:39;;;;;;;0.40;0.40;;;7.80;99.90;;;;;;5105071;27;20060;-85
2023/12/10 04:53:05;;;;;;;0.55;0.55;;;7.70;99.90;;;;;;5119577;27;20046;-86
2023/12/10 04:55:30;;;;;;;0.50;0.50;;;7.70;99.90;;;;;;5085158;27;20038;-84
2023/12/10 04:57:56;;;;;;;0.40;0.40;;;7.90;99.90;;;;;;5119744;27;20111;-83
2023/12/10 05:00:22;;;;;;;0.45;0.45;;;7.90;99.90;;;;;;5101804;27;20055;-84
2023/12/10 05:02:47;;;;;;;0.60;0.60;;;8.00;99.90;;;;;;5102449;27;20035;-84
2023/12/10 05:05:14;;;;;;;0.47;0.47;;;8.20;99.90;;;;;;5138535;27;20046;-87
2023/12/10 05:07:40;;;;;;;0.40;0.40;;;7.80;99.90;;;;;;5136735;27;20057;-86
2023/12/10 05:10:06;;;;;;;1.75;1.65;;;8.00;99.90;;;;;;5141548;27;20102;-86
2023/12/10 05:12:32;;;;;;;0.50;0.50;;;8.10;99.90;;;;;;5099709;27;20047;-84
2023/12/10 05:14:57;;;;;;;0.50;0.50;;;8.10;99.90;;;;;;5118510;28;20043;-83
2023/12/10 05:17:23;;;;;;;0.60;0.60;;;8.00;99.90;;;;;;5118919;27;20039;-85
2023/12/10 05:19:49;;;;;;;0.50;0.50;;;7.90;99.90;;;;;;5117176;27;20039;-85
2023/12/10 05:22:15;;;;;;;0.50;0.50;;;8.10;99.90;;;;;;5118526;27;20122;-84
2023/12/10 05:24:41;;;;;;;0.75;0.50;;;8.10;99.90;;;;;;5116614;28;20072;-83
2023/12/10 05:27:07;;;;;;;0.47;0.47;;;8.10;99.90;;;;;;5096246;28;20035;-84
2023/12/10 05:29:33;;;;;;;0.43;0.43;;;8.10;99.90;;;;;;5119589;27;20078;-86
2023/12/10 05:31:59;;;;;;;0.50;0.50;;;8.00;99.90;;;;;;5119428;28;20080;-83
2023/12/10 05:34:25;;;;;;;1.20;1.20;;;8.20;99.90;;;;;;5117528;27;20660;-84
2023/12/10 05:36:51;;;;;;;0.88;0.88;;;8.00;99.90;;;;;;5135767;27;20054;-80
2023/12/10 05:39:16;;;;;;;0.40;0.40;;;8.00;99.90;;;;;;5138981;27;20504;-84
2023/12/10 05:41:42;;;;;;;0.30;0.30;;;7.90;99.90;;;;;;5134420;27;20041;-80
2023/12/10 05:44:08;;;;;;;0.50;0.50;;;8.00;99.90;;;;;;5114481;28;20039;-80
2023/12/10 05:46:34;;;;;;;0.45;0.45;;;8.00;99.90;;;;;;5101289;27;20035;-82
2023/12/10 05:49:00;;;;;;;0.30;0.30;;;8.10;99.90;;;;;;5136962;27;20125;-80
2023/12/10 05:51:25;;;;;;;0.40;0.40;;;8.00;99.90;;;;;;5131755;27;20118;-82
2023/12/10 05:53:51;;;;;;;0.60;0.60;;;8.10;99.90;;;;;;5100398;27;20050;-80
2023/12/10 05:56:17;;;;;;;;;;;8.10;99.90;;;;;;5134542;27;20046;-82
2023/12/10 05:58:43;;;;;;;0.40;0.40;;;8.00;99.90;;;;;;5131954;27;19922;-81
2023/12/10 06:01:08;;;;;;;0.45;0.45;;;8.10;99.90;;;;;;5116811;27;20031;-79
2023/12/10 06:03:34;;;;;;;0.40;0.40;;;8.00;99.90;;;;;;5100097;27;20039;-78
2023/12/10 06:06:00;;;;;;;0.30;0.30;;;7.80;99.90;;;;;;5134121;27;20480;-79
2023/12/10 06:08:26;;;;;;;0.70;0.70;;;8.10;99.90;;;;;;5118527;27;20035;-78
2023/12/10 06:10:51;;;;;;;0.40;0.40;;;8.00;99.90;;;;;;5098467;27;20045;-81
2023/12/10 06:13:17;;;;;;;0.35;0.35;;;8.00;99.90;;;;;;5114664;27;20446;-77
2023/12/10 06:15:46;;;;;;;0.40;0.40;;;8.00;99.90;;;;;;5113297;27;20396;-77
2023/12/10 06:18:12;;;;;;;0.30;0.30;;;8.10;99.90;;;;;;5131632;27;20038;-81
2023/12/10 06:20:38;;;;;;;0.40;0.40;;;8.10;99.90;;;;;;5130500;27;20031;-80
2023/12/10 06:23:03;;;;;;;0.73;0.73;;;8.10;99.90;;;;;;5132217;27;20476;-76
2023/12/10 06:25:29;;;;;;;0.60;0.60;;;8.00;99.90;;;;;;5096818;27;20042;-79
2023/12/10 06:27:56;;;;;;;0.43;0.43;;;8.00;99.90;;;;;;5113446;27;20043;-79
2023/12/10 06:30:23;;;;;;;0.40;0.40;;;8.10;99.90;;;;;;5113949;27;20034;-78
2023/12/10 06:32:49;;;;;;;0.57;0.57;;;8.10;99.90;;;;;;5131835;27;20038;-78
2023/12/10 06:35:14;;;;;;;;;;;8.20;99.90;;;;;;5114603;27;20039;-78
2023/12/10 06:37:41;;;;;;;0.50;0.50;;;8.10;99.90;;;;;;5133297;27;20272;-81
2023/12/10 06:40:07;;;;;;;0.60;0.60;;;8.20;99.90;;;;;;5093145;27;20130;-80
2023/12/10 06:42:34;;;;;;;0.47;0.47;;;8.20;99.90;;;;;;5129550;27;20472;-79
2023/12/10 06:45:00;;;;;;;1.58;1.58;;;8.30;99.90;;;;;;5114024;27;20476;-77
2023/12/10 06:47:26;;;;;;;0.40;0.40;;;8.20;99.90;;;;;;5131430;27;20039;-79
2023/12/10 06:49:52;;;;;;;0.50;0.50;;;8.30;99.90;;;;;;5129849;27;20035;-79
2023/12/10 06:52:18;;;;;;;2.08;0.43;;;8.30;99.90;;;;;;5112634;27;20114;-76
2023/12/10 06:54:43;;;;;;;5.38;1.80;;;8.40;99.90;;;;;;5129841;27;20045;-77
2023/12/10 06:57:10;;;;;;;1.55;1.45;;;8.40;99.90;;;;;;5130080;27;20625;-78
2023/12/10 06:59:35;;;;;;;0.40;0.40;;;8.60;99.90;;;;;;5132719;27;20119;-75
2023/12/10 07:02:01;;;;;;;0.73;0.73;;;8.50;99.90;;;;;;5130204;27;20562;-78
2023/12/10 07:04:27;;;;;;;0.32;0.32;;;8.40;99.90;;;;;;5129172;27;20103;-78
2023/12/10 07:06:53;;;;;;;0.40;0.40;;;8.50;99.90;;;;;;5129279;27;20495;-75
2023/12/10 07:09:18;;;;;;;1.33;1.27;;;8.40;99.90;;;;;;5112704;27;20127;-76
2023/12/10 07:11:44;;;;;;;0.30;0.30;;;8.40;99.90;;;;;;5132965;27;20039;-76
2023/12/10 07:14:10;;;;;;;0.60;0.60;;;8.30;99.90;;;;;;5133147;27;20062;-78
2023/12/10 07:16:36;;;;;;;0.50;0.50;;;8.30;99.90;;;;;;5129992;27;20043;-77
2023/12/10 07:19:01;;;;;;;0.40;0.40;;;8.40;99.90;;;;;;5097129;27;20035;-80
2023/12/10 07:21:27;;;;;;;1.05;0.60;;;8.30;99.90;;;;;;5131472;27;20042;-79
2023/12/10 07:23:53;;;;;;;0.43;0.43;;;8.40;99.90;;;;;;5111001;27;20443;-80
2023/12/10 07:26:25;;;;;;;0.30;0.30;;;8.50;99.90;;;;;;5111962;27;20054;-78
2023/12/10 07:28:51;;;;;;;0.55;0.55;;;8.40;99.90;;;;;;5111788;27;20439;-78
2023/12/10 07:31:18;;;;;;;0.40;0.40;;;8.50;99.90;;;;;;5115041;27;20130;-79
2023/12/10 07:33:43;;;;;;;0.40;0.40;;;8.60;99.90;;;;;;5111276;27;20053;-78
2023/12/10 07:36:10;;;;;;;1.27;1.23;;;8.50;99.90;;;;;;5130340;27;20039;-76
2023/12/10 07:38:36;;;;;;;1.08;1.08;;;8.60;99.90;;;;;;5130126;27;20043;-79
2023/12/10 07:41:02;;;;;;;;;;;8.90;99.90;;;;;;5128683;27;20049;-77
2023/12/10 07:43:28;;;;;;;0.50;0.50;;;8.60;99.90;;;;;;5131843;27;19923;-80
2023/12/10 07:45:53;;;;;;;1.23;0.55;;;8.60;99.90;;;;;;5102791;27;20097;-80
2023/12/10 07:48:20;;;;;;;0.65;0.65;;;8.70;99.90;;;;;;5099388;27;20093;-79
2023/12/10 07:50:54;;;;;;;0.40;0.40;;;8.60;99.90;;;;;;5113512;27;20050;-80
2023/12/10 07:53:20;;;;;;;0.40;0.40;;;8.70;99.90;;;;;;5128879;27;20227;-77
2023/12/10 07:55:46;;;;;;;0.38;0.38;;;8.60;99.90;;;;;;5110790;27;20490;-81
2023/12/10 07:58:11;;;;;;;9.38;0.82;;;8.70;99.90;;;;;;5112357;27;20041;-77
2023/12/10 08:00:39;;;;;;;0.47;0.47;;;8.60;99.90;;;;;;5091117;27;20128;-77
2023/12/10 08:03:05;;;;;;;0.30;0.30;;;8.50;99.90;;;;;;5094250;27;20122;-78
2023/12/10 08:05:31;;;;;;;0.30;0.30;;;8.60;99.90;;;;;;5128538;27;20535;-77
2023/12/10 08:08:02;;;;;;;0.30;0.30;;;8.40;99.90;;;;;;5110234;27;20072;-81
2023/12/10 08:10:28;;;;;;;0.77;0.77;;;8.60;99.90;;;;;;5110099;27;20046;-79
2023/12/10 08:12:54;;;;;;;0.40;0.40;;;8.50;99.90;;;;;;5131698;27;20070;-79
2023/12/10 08:15:20;;;;;;;;;;;8.30;99.90;;;;;;5112711;27;20042;-78
2023/12/10 08:17:46;;;;;;;1.70;0.57;;;8.40;99.90;;;;;;5129791;27;20368;-78
2023/12/10 08:20:12;;;;;;;0.40;0.40;;;8.30;99.90;;;;;;5129835;27;20396;-77
2023/12/10 08:22:38;;;;;;;0.30;0.30;;;8.40;99.90;;;;;;5113198;27;20099;-80
2023/12/10 08:25:05;;;;;;;0.40;0.40;;;8.40;99.90;;;;;;5128802;27;20152;-77
2023/12/10 08:27:31;;;;;;;0.35;0.35;;;8.50;99.90;;;;;;5113626;27;20388;-79
2023/12/10 08:29:57;;;;;;;;;;;8.30;99.90;;;;;;5128249;27;20031;-77
2023/12/10 08:32:23;;;;;;;0.40;0.40;;;8.50;99.90;;;;;;5104577;27;20382;-82
2023/12/10 08:34:48;;;;;;;0.40;0.40;;;8.40;99.90;;;;;;5115106;27;20046;-80
2023/12/10 08:37:14;;;;;;;0.50;0.50;;;8.40;99.90;;;;;;5113936;27;20136;-80
2023/12/10 08:39:42;;;;;;;0.40;0.40;;;8.40;99.90;;;;;;5094357;27;20080;-82
2023/12/10 08:42:08;;;;;;;0.40;0.40;;;8.50;99.90;;;;;;5111288;27;20031;-79
2023/12/10 08:44:33;;;;;;;0.40;0.40;;;8.40;99.90;;;;;;5096531;27;20400;-78
2023/12/10 08:46:59;;;;;;;0.63;0.63;;;8.50;99.90;;;;;;5096509;27;20042;-78
2023/12/10 08:49:27;;;;;;;0.45;0.45;;;8.40;99.90;;;;;;5112862;27;20125;-77
2023/12/10 08:51:53;;;;;;;0.40;0.40;;;8.40;99.90;;;;;;5129267;27;20043;-79
2023/12/10 08:54:22;;;;;;;0.40;0.40;;;8.30;99.90;;;;;;5131547;27;20099;-78
2023/12/10 08:56:48;;;;;;;0.40;0.40;;;8.30;99.90;;;;;;5128695;27;20047;-78
2023/12/10 08:59:13;;;;;;;0.40;0.40;;;8.60;99.90;;;;;;5111424;27;20069;-76
2023/12/10 09:01:39;;;;;;;0.40;0.40;;;8.50;99.90;;;;;;5110977;27;20449;-80
2023/12/10 09:04:05;;;;;;;0.50;0.50;;;8.50;99.90;;;;;;5095338;27;20051;-79
2023/12/10 09:06:32;;;;;;;0.40;0.40;;;8.30;99.90;;;;;;5128546;27;20043;-78
2023/12/10 09:08:58;;;;;;;0.30;0.30;;;8.40;99.90;;;;;;5114160;27;20153;-77
2023/12/10 09:11:23;;;;;;;0.93;0.93;;;8.30;99.90;;;;;;5110403;27;21719;-76
2023/12/10 09:13:49;;;;;;;0.40;0.40;;;8.20;99.90;;;;;;5126679;27;20126;-79
2023/12/10 09:16:18;;;;;;;0.85;0.85;;;8.20;99.90;;;;;;5110124;27;20039;-77
2023/12/10 09:18:44;;;;;;;0.68;0.68;;;8.20;99.90;;;;;;5128771;27;20031;-77
2023/12/10 09:21:10;;;;;;;0.50;0.50;;;8.20;99.90;;;;;;5133706;27;20047;-77
2023/12/10 09:23:36;;;;;;;26.15;2.63;;;8.30;99.90;;;;;;5115840;27;20131;-78
2023/12/10 09:26:02;;;;;;;0.47;0.47;;;8.10;99.90;;;;;;5128151;27;20454;-78
2023/12/10 09:28:28;;;;;;;0.40;0.40;;;8.30;99.90;;;;;;5118671;27;20054;-80
2023/12/10 09:30:54;;;;;;;0.43;0.43;;;8.90;99.90;;;;;;5111073;28;20495;-79
2023/12/10 09:33:19;;;;;;;0.40;0.40;;;8.30;99.90;;;;;;5093951;28;20071;-79
2023/12/10 09:35:45;;;;;;;0.43;0.43;;;8.30;99.90;;;;;;5111006;27;20482;-80
2023/12/10 09:38:11;;;;;;;0.45;0.45;;;8.10;99.90;;;;;;5109815;28;20043;-77
2023/12/10 09:40:38;;;;;;;0.40;0.40;;;8.10;99.90;;;;;;5113723;27;20058;-79
2023/12/10 09:43:04;;;;;;;0.40;0.40;;;8.10;99.90;;;;;;5111455;28;20562;-77
2023/12/10 09:45:29;;;;;;;;;;;8.20;99.90;;;;;;5110237;28;20047;-79
2023/12/10 09:47:55;;;;;;;0.40;0.40;;;8.30;99.90;;;;;;5088907;27;19950;-78
2023/12/10 09:50:23;;;;;;;2.47;1.25;;;8.10;99.90;;;;;;5109276;28;20142;-77
2023/12/10 09:52:49;;;;;;;0.30;0.30;;;8.30;99.90;;;;;;5128604;27;20451;-76
2023/12/10 09:55:17;;;;;;;0.65;0.65;;;8.10;99.90;;;;;;5130317;27;20138;-76
2023/12/10 09:57:43;;;;;;;0.50;0.50;;;8.20;99.90;;;;;;5110840;28;20171;-80
2023/12/10 10:00:10;;;;;;;0.30;0.30;;;8.10;99.90;;;;;;5111635;27;20455;-77
2023/12/10 10:02:36;;;;;;;1.05;1.05;;;8.10;99.90;;;;;;5111987;28;20130;-80
2023/12/10 10:05:04;;;;;;;0.50;0.50;;;8.20;99.90;;;;;;5128390;27;20043;-80
2023/12/10 10:07:30;;;;;;;2.38;2.15;;;8.10;99.90;;;;;;5121016;27;20137;-77
2023/12/10 10:09:56;;;;;;;0.40;0.40;;;8.20;99.90;;;;;;5126815;27;20134;-78
2023/12/10 10:12:27;;;;;;;0.40;0.40;;;8.20;99.90;;;;;;5125390;27;20625;-76
2023/12/10 10:14:59;;;;;;;0.50;0.50;;;8.20;99.90;;;;;;5104316;27;20457;-78
2023/12/10 10:17:33;;;;;;;0.38;0.38;;;8.10;99.90;;;;;;5111915;27;20049;-77
2023/12/10 10:19:59;;;;;;;0.40;0.40;;;8.30;99.90;;;;;;5134929;27;20031;-80
2023/12/10 10:22:26;;;;;;;;;;;8.20;99.90;;;;;;5132547;27;20075;-80
2023/12/10 10:24:52;;;;;;;0.50;0.50;;;8.20;99.90;;;;;;5129636;27;19931;-80
2023/12/10 10:27:18;;;;;;;;;;;8.20;99.90;;;;;;5108837;27;20630;-82
2023/12/10 10:29:45;;;;;;;0.40;0.40;;;8.10;99.90;;;;;;5111374;28;19942;-84
2023/12/10 10:32:15;;;;;;;0.40;0.40;;;8.10;99.90;;;;;;5126106;27;20111;-83
2023/12/10 10:34:45;;;;;;;0.50;0.50;;;8.10;99.90;;;;;;5141157;27;20097;-79
2023/12/10 10:37:11;;;;;;;0.55;0.55;;;8.20;99.90;;;;;;5115210;27;20047;-77
2023/12/10 10:39:37;;;;;;;0.40;0.40;;;8.10;99.90;;;;;;5133472;27;20035;-78
2023/12/10 10:42:08;;;;;;;0.50;0.50;;;8.10;99.90;;;;;;5134007;27;20510;-78
2023/12/10 10:44:35;;;;;;;1.17;1.13;;;8.10;99.90;;;;;;5137150;27;20039;-82
2023/12/10 10:47:04;;;;;;;0.40;0.40;;;8.20;99.90;;;;;;5142720;27;20075;-78
2023/12/10 10:49:31;;;;;;;0.40;0.40;;;8.30;99.90;;;;;;5131820;27;20160;-79
2023/12/10 10:51:59;;;;;;;0.50;0.50;;;8.30;99.90;;;;;;5125944;27;20112;-78
2023/12/10 10:54:26;;;;;;;7.53;1.70;;;8.20;99.90;;;;;;5120338;27;20126;-78
2023/12/10 10:56:52;;;;;;;1.05;1.00;;;8.20;99.90;;;;;;5131319;27;20042;-78
2023/12/10 10:59:31;;;;;;;0.60;0.60;;;8.00;99.90;;;;;;5116440;27;20520;-80
2023/12/10 11:01:59;;;;;;;1.08;0.68;;;8.30;99.90;;;;;;5129608;27;20035;-79
2023/12/10 11:04:32;;;;;;;1.00;1.00;;;8.20;99.90;;;;;;5127635;27;20450;-80
2023/12/10 11:06:59;;;;;;;0.47;0.47;;;8.30;99.90;;;;;;5123155;27;20094;-80
2023/12/10 11:09:25;;;;;;;0.40;0.40;;;8.30;99.90;;;;;;5113105;27;20066;-78
2023/12/10 11:11:51;;;;;;;0.40;0.40;;;8.10;99.90;;;;;;5108089;27;20056;-80
2023/12/10 11:14:22;;;;;;;0.40;0.40;;;8.10;99.90;;;;;;5111823;27;20829;-81
2023/12/10 11:17:03;;;;;;;0.80;0.80;;;8.30;99.90;;;;;;5132228;27;20078;-79
2023/12/10 11:19:32;;;;;;;0.40;0.40;;;9.00;99.90;;;;;;5127809;27;20553;-78
2023/12/10 11:21:59;;;;;;;0.50;0.50;;;8.10;99.90;;;;;;5130049;27;20100;-80
2023/12/10 11:24:25;;;;;;;0.50;0.50;;;8.20;99.90;;;;;;5129859;27;20411;-78
2023/12/10 11:26:50;;;;;;;0.40;0.40;;;8.20;99.90;;;;;;5117316;27;20036;-80
2023/12/10 11:29:16;;;;;;;2.75;1.55;;;8.20;99.90;;;;;;5128805;27;20046;-79
2023/12/10 11:31:44;;;;;;;1.42;1.33;;;8.20;99.90;;;;;;5113327;27;20043;-78
2023/12/10 11:34:09;;;;;;;0.60;0.60;;;8.20;99.90;;;;;;5112216;27;20042;-78
2023/12/10 11:36:35;;;;;;;0.40;0.40;;;8.30;99.90;;;;;;5106854;27;20538;-78
2023/12/10 11:39:01;;;;;;;;;;;8.30;99.90;;;;;;5117683;27;20484;-79
2023/12/10 11:41:27;;;;;;;0.80;0.80;;;8.20;99.90;;;;;;5119664;27;19923;-79
2023/12/10 11:43:53;;;;;;;0.93;0.93;;;8.20;99.90;;;;;;5104107;27;20039;-80
2023/12/10 11:46:23;;;;;;;0.47;0.47;;;8.10;99.90;;;;;;5110185;27;20124;-78
2023/12/10 11:48:54;;;;;;;0.40;0.40;;;8.30;99.90;;;;;;5112644;27;20043;-79
2023/12/10 11:51:20;;;;;;;0.30;0.30;;;8.30;99.90;;;;;;5105850;27;20134;-80
2023/12/10 11:53:47;;;;;;;1.73;1.63;;;8.40;99.90;;;;;;5100088;27;20039;-79
2023/12/10 11:56:12;;;;;;;1.27;1.23;;;8.30;99.90;;;;;;5135052;27;20045;-80
2023/12/10 11:58:41;;;;;;;0.40;0.40;;;8.20;99.90;;;;;;5100037;27;20035;-81
2023/12/10 12:01:07;;;;;;;1.95;1.85;;;8.20;99.90;;;;;;5123401;27;20035;-79
2023/12/10 12:03:33;;;;;;;;;;;8.30;99.90;;;;;;5118275;27;20031;-80
2023/12/10 12:05:59;;;;;;;0.45;0.45;;;8.40;99.90;;;;;;5097671;27;19926;-78
2023/12/10 12:08:26;;;;;;;0.88;0.85;;;8.20;99.90;;;;;;5135071;27;20465;-80
2023/12/10 12:10:53;;;;;;;0.43;0.43;;;8.40;99.90;;;;;;5124704;27;20075;-77
2023/12/10 12:13:19;;;;;;;0.57;0.57;;;8.30;99.90;;;;;;5115067;27;20105;-81
2023/12/10 12:15:49;;;;;;;0.40;0.40;;;8.20;99.90;;;;;;5111007;27;20787;-79
2023/12/10 12:18:15;;;;;;;0.50;0.50;;;8.30;99.90;;;;;;5130354;27;20487;-79
2023/12/10 12:20:41;;;;;;;0.40;0.40;;;8.20;99.90;;;;;;5110039;27;20051;-79
2023/12/10 12:23:06;;;;;;;1.20;1.17;;;8.20;99.90;;;;;;5126004;27;20404;-78
2023/12/10 12:25:35;;;;;;;0.50;0.50;;;8.10;99.90;;;;;;5125729;27;20599;-78
2023/12/10 12:28:02;;;;;;;0.77;0.57;;;8.20;99.90;;;;;;5111472;27;20526;-79
2023/12/10 12:30:27;;;;;;;0.47;0.47;;;8.20;99.90;;;;;;5109980;27;20404;-78
2023/12/10 12:32:53;;;;;;;2.03;1.95;;;8.10;99.90;;;;;;5078167;27;20039;-77
2023/12/10 12:35:19;;;;;;;0.50;0.50;;;8.20;99.90;;;;;;5106614;27;20046;-77
2023/12/10 12:37:45;;;;;;;1.33;1.00;;;8.30;99.90;;;;;;5130683;27;20403;-79
2023/12/10 12:40:11;;;;;;;1.85;1.75;;;8.20;99.90;;;;;;5097414;27;20039;-78
2023/12/10 12:42:37;;;;;;;6.65;1.02;;;8.30;99.90;;;;;;5134636;27;20047;-78
2023/12/10 12:45:03;;;;;;;0.40;0.40;;;8.30;99.90;;;;;;5126272;27;20034;-78
2023/12/10 12:47:28;;;;;;;;;;;8.20;99.90;;;;;;5125293;27;20042;-78
2023/12/10 12:49:54;;;;;;;0.50;0.50;;;8.20;99.90;;;;;;5127134;27;19923;-78
2023/12/10 12:52:20;;;;;;;1.45;0.93;;;8.30;99.90;;;;;;5122146;27;20376;-78
2023/12/10 12:54:46;;;;;;;0.40;0.40;;;8.20;99.90;;;;;;5101727;27;20081;-79